createdAt,value
2023-03-05T11:05:32.112Z,35.80
2023-03-05T11:06:32.054Z,39.70
2023-03-05T11:07:32.017Z,41.20
2023-03-05T11:08:31.986Z,38.00
2023-03-05T11:09:31.953Z,37.20
2023-03-05T11:10:31.920Z,37.00
2023-03-05T11:11:31.915Z,38.90
2023-03-05T11:12:31.857Z,38.40
2023-03-05T11:13:31.824Z,37.80
2023-03-05T11:14:31.795Z,38.90
2023-03-05T11:15:31.764Z,39.50
2023-03-05T11:16:31.739Z,40.60
2023-03-05T11:17:31.710Z,37.70
2023-03-05T11:18:31.678Z,38.50
2023-03-05T11:19:31.670Z,41.10
2023-03-05T11:20:31.622Z,36.70
2023-03-05T11:21:31.602Z,38.00
2023-03-05T11:22:31.556Z,36.90
2023-03-05T11:23:31.536Z,37.30
2023-03-05T11:24:31.495Z,38.50
2023-03-05T11:25:31.464Z,38.30
2023-03-05T11:26:31.440Z,37.60
2023-03-05T11:27:31.403Z,36.50
2023-03-05T11:28:33.556Z,37.20
2023-03-05T11:29:31.346Z,35.90
2023-03-05T11:30:31.532Z,40.90
2023-03-05T11:31:31.286Z,36.80
2023-03-05T11:32:31.312Z,37.90
2023-03-05T11:33:31.228Z,38.90
2023-03-05T11:34:31.199Z,36.10
2023-03-05T11:35:31.239Z,34.20
2023-03-05T11:36:31.142Z,35.90
2023-03-05T11:37:31.128Z,36.60
2023-03-05T11:38:31.390Z,37.40
2023-03-05T11:39:31.053Z,36.70
2023-03-05T11:40:31.027Z,35.70
2023-03-05T11:41:30.998Z,35.50
2023-03-05T11:42:30.969Z,37.50
2023-03-05T11:43:30.938Z,37.90
2023-03-05T11:44:30.911Z,38.70
2023-03-05T11:45:30.881Z,36.00
2023-03-05T11:46:30.923Z,36.90
2023-03-05T11:47:30.822Z,34.40
2023-03-05T11:48:30.797Z,36.10
2023-03-05T11:49:31.429Z,36.60
2023-03-05T11:50:30.738Z,32.00
2023-03-05T11:51:30.706Z,33.60
2023-03-05T11:52:30.680Z,33.70
2023-03-05T11:53:30.672Z,32.80
2023-03-05T11:54:30.628Z,36.50
2023-03-05T11:55:30.594Z,32.90
2023-03-05T11:56:30.580Z,34.10
2023-03-05T11:57:30.539Z,35.00
2023-03-05T11:58:30.517Z,31.40
2023-03-05T11:59:30.493Z,33.40
2023-03-05T12:00:30.456Z,35.20
2023-03-05T12:01:30.425Z,31.00
2023-03-05T12:02:30.409Z,33.30
2023-03-05T12:03:30.433Z,33.80
2023-03-05T12:04:30.346Z,32.30
2023-03-05T12:05:30.317Z,33.40
2023-03-05T12:06:30.294Z,34.60
2023-03-05T12:07:30.255Z,34.70
2023-03-05T12:08:30.228Z,32.00
2023-03-05T12:09:30.240Z,31.90
2023-03-05T12:10:30.179Z,32.50
2023-03-05T12:11:30.141Z,31.60
2023-03-05T12:12:30.119Z,32.50
2023-03-05T12:13:30.087Z,30.70
2023-03-05T12:14:30.058Z,30.20
2023-03-05T12:15:30.031Z,30.00
2023-03-05T12:16:30.137Z,27.70
2023-03-05T12:17:29.980Z,29.40
2023-03-05T12:18:29.971Z,29.20
2023-03-05T12:19:29.914Z,31.10
2023-03-05T12:20:29.945Z,31.00
2023-03-05T12:21:29.858Z,28.30
2023-03-05T12:22:29.832Z,29.40
2023-03-05T12:23:29.801Z,30.90
2023-03-05T12:24:29.775Z,32.40
2023-03-05T12:25:29.770Z,30.40
2023-03-05T12:26:29.718Z,30.90
2023-03-05T12:27:29.691Z,32.40
2023-03-05T12:28:29.663Z,30.70
2023-03-05T12:29:29.630Z,28.60
2023-03-05T12:30:29.609Z,29.90
2023-03-05T12:31:29.625Z,29.80
2023-03-05T12:32:29.694Z,31.40
2023-03-05T12:33:29.514Z,28.30
2023-03-05T12:34:29.489Z,29.90
2023-03-05T12:35:29.529Z,28.70
2023-03-05T12:36:29.426Z,31.10
2023-03-05T12:37:29.397Z,29.00
2023-03-05T12:38:29.370Z,30.00
2023-03-05T12:39:29.340Z,31.20
2023-03-05T12:40:29.315Z,31.20
2023-03-05T12:41:29.668Z,31.50
2023-03-05T12:42:29.253Z,30.90
2023-03-05T12:43:29.223Z,30.20
2023-03-05T12:44:29.196Z,30.10
2023-03-05T12:45:29.166Z,29.90
2023-03-05T12:46:29.232Z,29.00
2023-03-05T12:47:29.107Z,31.30
2023-03-05T12:48:29.114Z,30.40
2023-03-05T12:49:29.052Z,32.10
2023-03-05T12:50:29.097Z,30.90
2023-03-05T12:51:29.005Z,31.40
2023-03-05T12:52:28.963Z,32.50
2023-03-05T12:53:28.935Z,32.10
2023-03-05T12:54:28.944Z,28.50
2023-03-05T12:55:28.876Z,29.10
2023-03-05T12:56:28.853Z,26.60
2023-03-05T12:57:28.838Z,28.70
2023-03-05T12:58:28.813Z,29.40
2023-03-05T12:59:28.769Z,31.30
2023-03-05T13:00:28.807Z,32.20
2023-03-05T13:01:28.708Z,29.20
2023-03-05T13:02:28.691Z,31.00
2023-03-05T13:03:28.670Z,30.10
2023-03-05T13:04:28.625Z,29.70
2023-03-05T13:05:28.596Z,28.50
2023-03-05T13:06:28.563Z,31.30
2023-03-05T13:07:28.531Z,29.10
2023-03-05T13:08:28.507Z,31.10
2023-03-05T13:09:28.490Z,33.00
2023-03-05T13:10:28.449Z,32.00
2023-03-05T13:11:28.421Z,29.50
2023-03-05T13:12:28.398Z,30.60
2023-03-05T13:18:18.616Z,30.20
2023-03-05T13:20:32.972Z,31.40
2023-03-05T13:20:33.451Z,32.00
2023-03-05T13:21:33.448Z,31.60
2023-03-05T13:22:33.396Z,32.70
2023-03-05T13:24:04.749Z,33.70
2023-03-05T13:25:04.718Z,31.80
2023-03-05T13:26:04.690Z,29.90
2023-03-05T13:27:04.662Z,33.70
2023-03-05T13:28:04.631Z,33.40
2023-03-05T13:29:04.604Z,31.20
2023-03-05T13:30:04.578Z,31.80
2023-03-05T13:31:04.556Z,32.70
2023-03-05T13:32:04.568Z,30.60
2023-03-05T13:32:52.642Z,30.00
2023-03-05T13:33:52.629Z,28.70
2023-03-05T13:34:52.585Z,31.60
2023-03-05T13:35:54.098Z,28.50
2023-03-05T13:36:52.525Z,29.80
2023-03-05T13:37:52.511Z,30.80
2023-03-05T13:38:52.477Z,31.50
2023-03-05T13:39:52.446Z,32.20
2023-03-05T13:40:52.417Z,29.00
2023-03-05T13:41:52.385Z,27.80
2023-03-05T13:42:52.356Z,29.80
2023-03-05T13:43:52.337Z,28.80
2023-03-05T13:44:52.298Z,26.90
2023-03-05T13:45:52.331Z,28.90
2023-03-05T13:46:52.242Z,29.80
2023-03-05T13:47:52.214Z,28.90
2023-03-05T13:48:52.195Z,30.10
2023-03-05T13:49:52.177Z,29.50
2023-03-05T13:50:52.130Z,28.00
2023-03-05T13:51:52.099Z,29.40
2023-03-05T13:52:52.070Z,29.90
2023-03-05T13:53:52.042Z,26.70
2023-03-05T13:54:52.011Z,29.30
2023-03-05T13:55:51.987Z,30.60
2023-03-05T13:56:51.956Z,29.20
2023-03-05T13:57:51.929Z,30.60
2023-03-05T13:58:51.899Z,29.10
2023-03-05T13:59:51.873Z,29.70
2023-03-05T14:00:51.862Z,28.30
2023-03-05T14:01:51.816Z,30.30
2023-03-05T14:02:51.798Z,28.60
2023-03-05T14:03:51.760Z,28.40
2023-03-05T14:04:51.840Z,28.00
2023-03-05T14:05:51.716Z,26.00
2023-03-05T14:06:51.688Z,28.90
2023-03-05T14:07:51.650Z,30.70
2023-03-05T14:08:51.621Z,30.20
2023-03-05T14:09:51.589Z,29.40
2023-03-05T14:10:51.561Z,30.20
2023-03-05T14:11:51.533Z,29.40
2023-03-05T14:12:51.503Z,28.90
2023-03-05T14:13:51.477Z,31.30
2023-03-05T14:14:51.450Z,30.50
2023-03-05T14:15:51.422Z,31.70
2023-03-05T14:16:51.475Z,26.40
2023-03-05T14:17:51.374Z,28.00
2023-03-05T14:18:51.341Z,29.00
2023-03-05T14:19:51.313Z,28.30
2023-03-05T14:20:51.285Z,28.70
2023-03-05T14:21:51.276Z,30.40
2023-03-05T14:22:51.235Z,27.30
2023-03-05T14:23:51.205Z,31.20
2023-03-05T14:24:51.176Z,25.70
2023-03-05T14:25:51.150Z,30.30
2023-03-05T14:26:51.123Z,27.50
2023-03-05T14:27:51.098Z,30.10
2023-03-05T14:28:51.069Z,28.80
2023-03-05T14:29:51.041Z,29.60
2023-03-05T14:30:51.114Z,29.40
2023-03-05T14:31:50.987Z,27.30
2023-03-05T14:32:51.030Z,30.50
2023-03-05T14:33:50.939Z,27.40
2023-03-05T14:34:50.922Z,31.30
2023-03-05T14:35:50.957Z,28.00
2023-03-05T14:36:50.856Z,28.30
2023-03-05T14:37:50.847Z,27.90
2023-03-05T14:38:50.800Z,27.50
2023-03-05T14:39:50.784Z,30.00
2023-03-05T14:40:50.794Z,31.60
2023-03-05T14:41:50.722Z,28.60
2023-03-05T14:42:50.696Z,31.00
2023-03-05T14:43:50.681Z,27.90
2023-03-05T14:44:50.642Z,31.30
2023-03-05T14:45:50.646Z,32.40
2023-03-05T14:46:50.595Z,29.60
2023-03-05T14:47:50.566Z,27.90
2023-03-05T14:48:50.544Z,30.60
2023-03-05T14:49:50.515Z,28.80
2023-03-05T14:50:50.487Z,28.00
2023-03-05T14:51:50.462Z,29.20
2023-03-05T14:52:50.436Z,27.60
2023-03-05T14:53:50.437Z,31.10
2023-03-05T14:54:50.393Z,29.10
2023-03-05T14:55:50.384Z,28.00
2023-03-05T14:56:50.336Z,27.70
2023-03-05T14:57:50.314Z,27.90
2023-03-05T14:58:50.289Z,29.00
2023-03-05T14:59:50.266Z,29.30
2023-03-05T15:00:51.349Z,28.60
2023-03-05T15:01:50.267Z,25.80
2023-03-05T15:02:50.191Z,30.20
2023-03-05T15:03:50.169Z,28.70
2023-03-05T15:04:50.142Z,29.20
2023-03-05T15:05:50.125Z,28.50
2023-03-05T15:06:50.094Z,26.60
2023-03-05T15:07:50.069Z,30.20
2023-03-05T15:08:50.050Z,27.40
2023-03-05T15:09:50.045Z,28.10
2023-03-05T15:10:49.996Z,27.00
2023-03-05T15:11:49.980Z,26.50
2023-03-05T15:12:49.948Z,28.60
2023-03-05T15:13:49.928Z,26.70
2023-03-05T15:14:49.902Z,27.60
2023-03-05T15:15:49.921Z,28.00
2023-03-05T15:16:49.853Z,26.70
2023-03-05T15:17:49.831Z,27.40
2023-03-05T15:18:49.813Z,30.90
2023-03-05T15:19:49.785Z,29.70
2023-03-05T15:20:49.760Z,27.70
2023-03-05T15:21:49.739Z,27.70
2023-03-05T15:22:49.717Z,31.10
2023-03-05T15:23:49.691Z,30.40
2023-03-05T15:24:49.671Z,29.30
2023-03-05T15:25:49.918Z,27.90
2023-03-05T15:26:50.279Z,31.90
2023-03-05T15:27:49.599Z,31.30
2023-03-05T15:28:49.574Z,28.50
2023-03-05T15:29:49.553Z,27.30
2023-03-05T15:30:49.595Z,30.30
2023-03-05T15:31:49.506Z,29.40
2023-03-05T15:32:49.484Z,28.20
2023-03-05T15:33:49.460Z,27.00
2023-03-05T15:34:49.440Z,29.30
2023-03-05T15:35:49.473Z,27.90
2023-03-05T15:36:49.390Z,25.90
2023-03-05T15:37:49.371Z,26.10
2023-03-05T15:38:49.348Z,27.80
2023-03-05T15:39:49.327Z,29.80
2023-03-05T15:40:49.299Z,29.20
2023-03-05T15:41:49.294Z,30.30
2023-03-05T15:42:49.253Z,28.00
2023-03-05T15:43:49.231Z,28.90
2023-03-05T15:44:49.202Z,29.70
2023-03-05T15:45:49.178Z,28.90
2023-03-05T15:46:49.153Z,25.90
2023-03-05T15:47:49.131Z,28.60
2023-03-05T15:48:49.107Z,26.00
2023-03-05T15:49:49.085Z,26.30
2023-03-05T15:50:49.057Z,26.30
2023-03-05T15:51:49.031Z,28.50
2023-03-05T15:52:49.007Z,25.70
2023-03-05T15:53:48.985Z,26.90
2023-03-05T15:54:48.959Z,24.40
2023-03-05T15:55:48.932Z,26.40
2023-03-05T15:56:48.911Z,26.20
2023-03-05T15:57:48.922Z,26.80
2023-03-05T15:58:48.859Z,26.20
2023-03-05T15:59:48.837Z,28.30
2023-03-05T16:00:48.812Z,26.30
2023-03-05T16:01:49.023Z,25.50
2023-03-05T16:02:48.785Z,26.30
2023-03-05T16:03:48.737Z,27.10
2023-03-05T16:04:48.714Z,25.80
2023-03-05T16:05:48.688Z,26.40
2023-03-05T16:06:48.661Z,27.30
2023-03-05T16:07:50.240Z,25.50
2023-03-05T16:08:48.615Z,24.40
2023-03-05T16:09:48.593Z,26.10
2023-03-05T16:10:48.574Z,27.60
2023-03-05T16:11:48.541Z,25.90
2023-03-05T16:12:48.512Z,26.60
2023-03-05T16:13:48.509Z,24.80
2023-03-05T16:14:50.803Z,25.40
2023-03-05T16:15:48.474Z,26.80
2023-03-05T16:16:48.415Z,27.90
2023-03-05T16:17:48.388Z,25.90
2023-03-05T16:18:48.363Z,27.30
2023-03-05T16:19:48.337Z,26.30
2023-03-05T16:20:48.310Z,26.30
2023-03-05T16:21:48.309Z,28.30
2023-03-05T16:22:48.270Z,25.60
2023-03-05T16:23:48.233Z,26.80
2023-03-05T16:24:48.214Z,29.30
2023-03-05T16:25:48.185Z,27.30
2023-03-05T16:26:48.159Z,26.80
2023-03-05T16:27:48.134Z,25.60
2023-03-05T16:28:48.101Z,27.10
2023-03-05T16:29:48.112Z,30.10
2023-03-05T16:30:48.052Z,28.00
2023-03-05T16:31:48.069Z,27.50
2023-03-05T16:32:47.995Z,26.60
2023-03-05T16:33:47.972Z,27.20
2023-03-05T16:34:47.951Z,25.30
2023-03-05T16:35:47.974Z,27.00
2023-03-05T16:36:47.928Z,25.10
2023-03-05T16:37:47.863Z,27.70
2023-03-05T16:38:47.845Z,28.30
2023-03-05T16:39:47.815Z,27.00
2023-03-05T16:41:08.199Z,27.70
2023-03-05T16:41:47.755Z,26.10
2023-03-05T16:42:47.727Z,29.00
2023-03-05T16:43:47.704Z,28.40
2023-03-05T16:44:47.679Z,32.30
2023-03-05T16:45:47.670Z,28.10
2023-03-05T16:46:47.674Z,27.80
2023-03-05T16:47:47.597Z,28.60
2023-03-05T16:48:47.567Z,29.10
2023-03-05T16:49:47.533Z,29.90
2023-03-05T16:50:47.503Z,30.00
2023-03-05T16:51:47.491Z,29.40
2023-03-05T16:52:47.448Z,26.90
2023-03-05T16:53:47.431Z,26.10
2023-03-05T16:54:47.405Z,28.90
2023-03-05T16:55:47.364Z,25.70
2023-03-05T16:56:47.336Z,27.50
2023-03-05T16:57:47.309Z,27.60
2023-03-05T16:58:47.279Z,27.40
2023-03-05T16:59:47.253Z,26.50
2023-03-05T17:00:47.263Z,25.30
2023-03-05T17:01:47.212Z,28.20
2023-03-05T17:02:47.166Z,27.90
2023-03-05T17:03:47.212Z,27.80
2023-03-05T17:04:47.108Z,28.50
2023-03-05T17:05:47.082Z,28.20
2023-03-05T17:06:47.059Z,26.70
2023-03-05T17:07:47.029Z,28.70
2023-03-05T17:08:46.994Z,28.90
2023-03-05T17:09:46.965Z,28.80
2023-03-05T17:10:46.937Z,26.20
2023-03-05T17:11:46.907Z,25.90
2023-03-05T17:12:46.877Z,29.50
2023-03-05T17:13:48.877Z,27.30
2023-03-05T17:14:46.819Z,26.10
2023-03-05T17:15:46.795Z,27.50
2023-03-05T17:16:46.852Z,26.50
2023-03-05T17:17:46.752Z,27.20
2023-03-05T17:18:46.714Z,27.40
2023-03-05T17:19:46.682Z,26.00
2023-03-05T17:20:46.649Z,30.70
2023-03-05T17:21:46.623Z,28.70
2023-03-05T17:22:46.589Z,24.70
2023-03-05T17:23:46.560Z,28.80
2023-03-05T17:24:46.530Z,28.40
2023-03-05T17:25:46.503Z,27.40
2023-03-05T17:26:46.483Z,28.40
2023-03-05T17:27:46.442Z,29.40
2023-03-05T17:28:46.413Z,27.70
2023-03-05T17:29:46.387Z,27.90
2023-03-05T17:30:46.375Z,29.60
2023-03-05T17:31:46.410Z,28.50
2023-03-05T17:32:46.297Z,27.60
2023-03-05T17:33:46.293Z,28.10
2023-03-05T17:34:46.242Z,29.80
2023-03-05T17:35:46.243Z,28.30
2023-03-05T17:36:46.178Z,30.70
2023-03-05T17:37:46.150Z,28.70
2023-03-05T17:38:46.130Z,29.40
2023-03-05T17:39:46.090Z,31.40
2023-03-05T17:40:46.071Z,30.70
2023-03-05T17:41:46.038Z,30.20
2023-03-05T17:42:46.002Z,30.50
2023-03-05T17:43:45.974Z,30.30
2023-03-05T17:44:45.991Z,30.40
2023-03-05T17:45:45.950Z,31.60
2023-03-05T17:46:45.881Z,31.30
2023-03-05T17:47:45.850Z,30.20
2023-03-05T17:48:45.824Z,29.80
2023-03-05T17:49:45.814Z,29.50
2023-03-05T17:50:45.762Z,30.40
2023-03-05T17:51:45.731Z,31.80
2023-03-05T17:52:45.707Z,30.10
2023-03-05T17:53:45.670Z,32.30
2023-03-05T17:54:45.641Z,31.50
2023-03-05T17:55:45.610Z,30.00
2023-03-05T17:56:45.580Z,31.90
2023-03-05T17:57:45.549Z,34.10
2023-03-05T17:58:45.529Z,30.10
2023-03-05T17:59:45.488Z,30.40
2023-03-05T18:00:45.524Z,28.50
2023-03-05T18:01:45.482Z,29.70
2023-03-05T18:02:45.400Z,28.50
2023-03-05T18:03:45.367Z,30.70
2023-03-05T18:04:45.337Z,30.90
2023-03-05T18:05:45.325Z,31.00
2023-03-05T18:06:45.277Z,29.60
2023-03-05T18:07:45.244Z,26.00
2023-03-05T18:08:45.225Z,26.60
2023-03-05T18:09:45.185Z,27.30
2023-03-05T18:10:45.170Z,27.60
2023-03-05T18:11:45.125Z,27.60
2023-03-05T18:12:45.101Z,26.10
2023-03-05T18:13:45.061Z,23.20
2023-03-05T18:14:45.030Z,25.40
2023-03-05T18:15:44.999Z,27.10
2023-03-05T18:16:45.025Z,25.30
2023-03-05T18:17:44.940Z,29.80
2023-03-05T18:18:44.908Z,27.00
2023-03-05T18:19:44.876Z,24.40
2023-03-05T18:20:44.849Z,26.00
2023-03-05T18:21:44.838Z,21.10
2023-03-05T18:22:44.786Z,19.60
2023-03-05T18:23:44.751Z,17.30
2023-03-05T18:24:44.726Z,16.20
2023-03-05T18:25:44.696Z,17.50
2023-03-05T18:26:44.660Z,15.80
2023-03-05T18:27:44.636Z,17.40
2023-03-05T18:28:44.631Z,16.20
2023-03-05T18:29:44.581Z,16.50
2023-03-05T18:30:44.601Z,16.30
2023-03-05T18:31:44.501Z,15.10
2023-03-05T18:32:44.469Z,14.50
2023-03-05T18:33:44.443Z,13.80
2023-03-05T18:34:44.408Z,16.20
2023-03-05T18:35:44.425Z,16.50
2023-03-05T18:36:44.344Z,13.60
2023-03-05T18:37:44.338Z,14.20
2023-03-05T18:38:44.282Z,14.30
2023-03-05T18:39:44.271Z,13.60
2023-03-05T18:40:44.218Z,14.20
2023-03-05T18:41:44.188Z,14.50
2023-03-05T18:42:44.160Z,15.30
2023-03-05T18:43:44.126Z,14.30
2023-03-05T18:44:44.094Z,13.50
2023-03-05T18:45:44.081Z,14.60
2023-03-05T18:46:44.031Z,13.70
2023-03-05T18:47:44.000Z,13.70
2023-03-05T18:48:43.973Z,13.20
2023-03-05T18:49:43.937Z,15.80
2023-03-05T18:50:43.906Z,13.40
2023-03-05T18:51:43.880Z,15.70
2023-03-05T18:52:43.841Z,14.70
2023-03-05T18:53:43.835Z,12.50
2023-03-05T18:54:43.780Z,12.50
2023-03-05T18:55:43.749Z,13.70
2023-03-05T18:56:43.721Z,13.30
2023-03-05T18:57:43.689Z,12.00
2023-03-05T18:58:43.654Z,13.10
2023-03-05T18:59:43.623Z,13.50
2023-03-05T19:00:43.591Z,11.80
2023-03-05T19:01:43.596Z,12.80
2023-03-05T19:02:43.528Z,13.70
2023-03-05T19:03:43.496Z,14.20
2023-03-05T19:04:43.467Z,13.10
2023-03-05T19:05:43.548Z,11.30
2023-03-05T19:06:43.435Z,13.50
2023-03-05T19:07:43.396Z,12.30
2023-03-05T19:08:43.341Z,12.50
2023-03-05T19:09:43.326Z,11.90
2023-03-05T19:10:43.282Z,14.40
2023-03-05T19:11:43.247Z,12.10
2023-03-05T19:12:43.216Z,11.80
2023-03-05T19:13:43.183Z,13.80
2023-03-05T19:14:43.153Z,15.80
2023-03-05T19:15:43.138Z,13.00
2023-03-05T19:16:43.092Z,13.80
2023-03-05T19:17:43.068Z,11.10
2023-03-05T19:18:43.036Z,13.90
2023-03-05T19:19:42.995Z,14.70
2023-03-05T19:20:42.965Z,12.20
2023-03-05T19:21:42.936Z,13.80
2023-03-05T19:22:42.905Z,12.30
2023-03-05T19:23:42.866Z,14.70
2023-03-05T19:24:42.836Z,11.80
2023-03-05T19:25:42.823Z,12.70
2023-03-05T19:26:42.774Z,12.10
2023-03-05T19:27:42.740Z,11.60
2023-03-05T19:28:42.714Z,12.10
2023-03-05T19:29:42.677Z,10.50
2023-03-05T19:30:42.698Z,13.00
2023-03-05T19:31:42.681Z,11.60
2023-03-05T19:32:42.670Z,11.70
2023-03-05T19:33:42.548Z,12.20
2023-03-05T19:34:42.520Z,11.10
2023-03-05T19:35:42.536Z,11.80
2023-03-05T19:36:42.452Z,12.00
2023-03-05T19:37:42.456Z,10.00
2023-03-05T19:38:42.401Z,11.50
2023-03-05T19:39:42.356Z,10.50
2023-03-05T19:40:42.326Z,11.60
2023-03-05T19:41:42.321Z,11.70
2023-03-05T19:42:42.265Z,10.50
2023-03-05T19:43:42.242Z,11.30
2023-03-05T19:44:42.203Z,12.10
2023-03-05T19:45:42.164Z,11.20
2023-03-05T19:46:42.323Z,12.00
2023-03-05T19:47:42.104Z,10.10
2023-03-05T19:48:42.069Z,9.80
2023-03-05T19:49:42.039Z,13.80
2023-03-05T19:50:42.006Z,10.80
2023-03-05T19:51:41.973Z,11.10
2023-03-05T19:52:41.944Z,11.50
2023-03-05T19:53:41.911Z,12.10
2023-03-05T19:54:41.877Z,12.90
2023-03-05T19:55:41.845Z,15.90
2023-03-05T19:56:41.826Z,14.40
2023-03-05T19:57:41.800Z,13.60
2023-03-05T19:58:41.749Z,12.20
2023-03-05T19:59:41.717Z,11.50
2023-03-05T20:00:41.693Z,11.30
2023-03-05T20:01:41.675Z,10.70
2023-03-05T20:02:41.633Z,11.50
2023-03-05T20:03:41.589Z,12.40
2023-03-05T20:04:41.556Z,11.50
2023-03-05T20:05:41.523Z,10.80
2023-03-05T20:06:41.492Z,10.80
2023-03-05T20:07:41.457Z,11.10
2023-03-05T20:08:41.433Z,13.40
2023-03-05T20:09:41.433Z,12.30
2023-03-05T20:10:41.367Z,11.00
2023-03-05T20:11:41.338Z,10.50
2023-03-05T20:12:41.303Z,12.10
2023-03-05T20:13:41.289Z,11.60
2023-03-05T20:14:41.248Z,9.50
2023-03-05T20:15:41.206Z,11.80
2023-03-05T20:16:41.179Z,10.60
2023-03-05T20:17:41.141Z,12.30
2023-03-05T20:18:41.112Z,12.20
2023-03-05T20:19:41.077Z,10.60
2023-03-05T20:20:41.047Z,11.40
2023-03-05T20:21:41.028Z,11.10
2023-03-05T20:22:40.984Z,10.70
2023-03-05T20:23:40.949Z,10.80
2023-03-05T20:24:40.925Z,11.80
2023-03-05T20:25:40.885Z,10.70
2023-03-05T20:26:40.861Z,12.80
2023-03-05T20:27:40.825Z,12.30
2023-03-05T20:28:40.789Z,10.60
2023-03-05T20:29:40.775Z,11.10
2023-03-05T20:30:40.727Z,10.80
2023-03-05T20:31:40.821Z,11.90
2023-03-05T20:32:40.674Z,11.10
2023-03-05T20:33:40.630Z,10.20
2023-03-05T20:34:40.600Z,11.40
2023-03-05T20:35:40.586Z,10.80
2023-03-05T20:36:40.531Z,12.90
2023-03-05T20:37:40.497Z,12.30
2023-03-05T20:38:40.467Z,13.10
2023-03-05T20:39:40.433Z,12.00
2023-03-05T20:40:40.401Z,11.90
2023-03-05T20:41:40.378Z,12.30
2023-03-05T20:42:40.338Z,10.30
2023-03-05T20:43:40.303Z,13.10
2023-03-05T20:44:40.273Z,12.20
2023-03-05T20:45:40.261Z,12.40
2023-03-05T20:46:40.254Z,10.90
2023-03-05T20:47:40.185Z,11.30
2023-03-05T20:48:40.144Z,11.00
2023-03-05T20:49:40.111Z,11.00
2023-03-05T20:50:40.079Z,11.60
2023-03-05T20:51:40.059Z,12.60
2023-03-05T20:52:40.018Z,11.70
2023-03-05T20:53:39.980Z,10.20
2023-03-05T20:54:39.987Z,10.40
2023-03-05T20:55:39.920Z,10.50
2023-03-05T20:56:39.906Z,11.70
2023-03-05T20:57:39.850Z,12.00
2023-03-05T20:58:39.821Z,10.40
2023-03-05T20:59:39.787Z,13.20
2023-03-05T21:00:39.767Z,11.80
2023-03-05T21:01:39.860Z,11.40
2023-03-05T21:02:39.690Z,11.30
2023-03-05T21:03:39.654Z,12.30
2023-03-05T21:04:39.626Z,10.50
2023-03-05T21:05:39.612Z,12.40
2023-03-05T21:06:39.570Z,12.50
2023-03-05T21:07:39.525Z,11.50
2023-03-05T21:08:39.493Z,11.60
2023-03-05T21:09:39.459Z,12.40
2023-03-05T21:10:39.436Z,14.10
2023-03-05T21:11:39.397Z,12.70
2023-03-05T21:12:39.363Z,11.70
2023-03-05T21:13:39.331Z,12.30
2023-03-05T21:14:39.298Z,12.10
2023-03-05T21:15:39.264Z,10.40
2023-03-05T21:16:39.334Z,10.70
2023-03-05T21:17:39.215Z,11.30
2023-03-05T21:18:39.166Z,12.80
2023-03-05T21:19:39.135Z,11.50
2023-03-05T21:20:39.101Z,11.90
2023-03-05T21:21:39.130Z,12.80
2023-03-05T21:22:39.032Z,11.70
2023-03-05T21:23:38.999Z,10.20
2023-03-05T21:24:38.968Z,11.30
2023-03-05T21:25:38.972Z,12.70
2023-03-05T21:26:38.903Z,10.40
2023-03-05T21:27:38.864Z,11.60
2023-03-05T21:28:38.833Z,11.80
2023-03-05T21:29:38.800Z,11.60
2023-03-05T21:30:38.769Z,11.60
2023-03-05T21:31:38.954Z,10.50
2023-03-05T21:32:38.777Z,11.40
2023-03-05T21:33:38.691Z,12.40
2023-03-05T21:34:38.634Z,10.90
2023-03-05T21:35:38.618Z,11.30
2023-03-05T21:36:38.574Z,10.60
2023-03-05T21:37:38.532Z,11.00
2023-03-05T21:38:38.501Z,12.30
2023-03-05T21:39:38.475Z,12.10
2023-03-05T21:40:38.433Z,11.30
2023-03-05T21:41:38.400Z,12.20
2023-03-05T21:42:38.367Z,9.60
2023-03-05T21:43:38.336Z,11.60
2023-03-05T21:44:38.300Z,11.90
2023-03-05T21:45:38.363Z,12.00
2023-03-05T21:46:38.235Z,11.60
2023-03-05T21:47:38.201Z,11.20
2023-03-05T21:48:38.176Z,11.20
2023-03-05T21:49:38.152Z,11.30
2023-03-05T21:50:38.105Z,12.60
2023-03-05T21:51:38.066Z,11.00
2023-03-05T21:52:38.034Z,11.80
2023-03-05T21:53:38.004Z,12.80
2023-03-05T21:54:37.986Z,10.20
2023-03-05T21:55:37.932Z,11.70
2023-03-05T21:56:37.905Z,13.10
2023-03-05T21:57:37.863Z,13.30
2023-03-05T21:58:37.839Z,11.10
2023-03-05T21:59:37.794Z,11.70
2023-03-05T22:00:37.765Z,10.70
2023-03-05T22:01:37.734Z,11.00
2023-03-05T22:02:37.694Z,13.20
2023-03-05T22:03:37.699Z,11.10
2023-03-05T22:04:37.628Z,11.90
2023-03-05T22:05:37.614Z,12.40
2023-03-05T22:06:37.564Z,13.60
2023-03-05T22:07:37.537Z,12.00
2023-03-05T22:08:37.494Z,12.70
2023-03-05T22:09:37.457Z,12.70
2023-03-05T22:10:37.427Z,11.70
2023-03-05T22:11:37.414Z,12.10
2023-03-05T22:12:37.359Z,11.40
2023-03-05T22:13:37.331Z,11.00
2023-03-05T22:14:37.337Z,10.80
2023-03-05T22:15:37.260Z,12.80
2023-03-05T22:16:37.244Z,11.10
2023-03-05T22:17:37.195Z,12.10
2023-03-05T22:18:37.157Z,12.00
2023-03-05T22:19:37.127Z,10.10
2023-03-05T22:20:37.093Z,12.40
2023-03-05T22:21:37.080Z,11.20
2023-03-05T22:22:37.028Z,10.40
2023-03-05T22:23:36.995Z,11.30
2023-03-05T22:24:36.961Z,10.90
2023-03-05T22:25:36.929Z,11.80
2023-03-05T22:26:36.899Z,12.90
2023-03-05T22:27:36.868Z,10.90
2023-03-05T22:28:36.829Z,11.30
2023-03-05T22:29:36.799Z,11.90
2023-03-05T22:30:36.791Z,12.00
2023-03-05T22:31:36.733Z,12.30
2023-03-05T22:32:36.730Z,12.70
2023-03-05T22:33:36.674Z,13.40
2023-03-05T22:34:36.632Z,11.80
2023-03-05T22:35:36.634Z,14.30
2023-03-05T22:36:36.572Z,12.80
2023-03-05T22:37:36.570Z,12.10
2023-03-05T22:38:36.501Z,12.00
2023-03-05T22:39:36.483Z,12.30
2023-03-05T22:40:36.434Z,12.30
2023-03-05T22:41:36.403Z,12.70
2023-03-05T22:42:36.371Z,10.40
2023-03-05T22:43:36.339Z,15.40
2023-03-05T22:44:36.306Z,12.40
2023-03-05T22:45:36.274Z,12.80
2023-03-05T22:46:36.241Z,11.80
2023-03-05T22:47:36.210Z,11.70
2023-03-05T22:48:36.174Z,11.20
2023-03-05T22:49:36.149Z,11.70
2023-03-05T22:50:36.108Z,11.10
2023-03-05T22:51:36.077Z,11.40
2023-03-05T22:52:36.044Z,10.90
2023-03-05T22:53:36.030Z,11.10
2023-03-05T22:54:35.980Z,11.50
2023-03-05T22:55:35.945Z,11.90
2023-03-05T22:56:35.920Z,11.20
2023-03-05T22:57:35.883Z,12.10
2023-03-05T22:58:35.849Z,12.50
2023-03-05T22:59:35.824Z,11.30
2023-03-05T23:00:35.798Z,11.80
2023-03-05T23:01:35.754Z,10.80
2023-03-05T23:02:35.720Z,10.90
2023-03-05T23:03:35.724Z,12.60
2023-03-05T23:04:35.656Z,11.00
2023-03-05T23:05:35.626Z,12.30
2023-03-05T23:06:35.594Z,11.60
2023-03-05T23:07:35.561Z,10.80
2023-03-05T23:08:35.529Z,11.30
2023-03-05T23:09:35.519Z,11.50
2023-03-05T23:10:35.467Z,11.80
2023-03-05T23:11:35.435Z,10.80
2023-03-05T23:12:35.400Z,10.40
2023-03-05T23:13:35.370Z,12.10
2023-03-05T23:14:35.358Z,10.90
2023-03-05T23:15:35.338Z,11.10
2023-03-05T23:16:35.283Z,11.10
2023-03-05T23:17:35.245Z,11.50
2023-03-05T23:18:35.209Z,13.00
2023-03-05T23:19:35.176Z,12.00
2023-03-05T23:20:35.148Z,11.70
2023-03-05T23:21:35.112Z,11.20
2023-03-05T23:22:35.096Z,10.80
2023-03-05T23:23:35.075Z,10.60
2023-03-05T23:24:35.016Z,12.70
2023-03-05T23:25:35.006Z,12.30
2023-03-05T23:26:34.951Z,12.90
2023-03-05T23:27:34.919Z,11.30
2023-03-05T23:28:34.885Z,12.30
2023-03-05T23:29:34.853Z,10.20
2023-03-05T23:30:34.822Z,10.60
2023-03-05T23:31:34.828Z,10.10
2023-03-05T23:32:34.785Z,13.70
2023-03-05T23:33:34.723Z,13.90
2023-03-05T23:34:34.690Z,11.90
2023-03-05T23:35:34.722Z,11.30
2023-03-05T23:36:34.621Z,11.40
2023-03-05T23:37:34.590Z,11.60
2023-03-05T23:38:34.555Z,12.10
2023-03-05T23:39:34.521Z,11.20
2023-03-05T23:40:34.489Z,12.90
2023-03-05T23:41:34.477Z,12.50
2023-03-05T23:42:34.427Z,10.60
2023-03-05T23:43:34.389Z,12.20
2023-03-05T23:44:34.355Z,14.10
2023-03-05T23:45:34.322Z,11.50
2023-03-05T23:46:34.372Z,11.40
2023-03-05T23:47:34.257Z,11.40
2023-03-05T23:48:34.227Z,12.90
2023-03-05T23:49:34.195Z,12.50
2023-03-05T23:50:34.156Z,13.70
2023-03-05T23:51:34.154Z,10.80
2023-03-05T23:52:34.099Z,14.80
2023-03-05T23:53:34.061Z,12.30
2023-03-05T23:54:34.029Z,12.30
2023-03-05T23:55:34.001Z,12.60
2023-03-05T23:56:33.962Z,12.40
2023-03-05T23:57:33.952Z,12.20
2023-03-05T23:58:33.903Z,12.40
2023-03-05T23:59:33.866Z,13.00
